sensor_id;sensor_type;location;lat;lon;timestamp;pressure;altitude;pressure_sealevel;temperature;humidity
31005;BME280;17676;52.254;4.490;2023-07-08T00:00:19;101802.03;;;22.95;100.00
31005;BME280;17676;52.254;4.490;2023-07-08T00:02:45;101782.97;;;22.93;100.00
31005;BME280;17676;52.254;4.490;2023-07-08T00:05:13;101797.31;;;22.95;100.00
31005;BME280;17676;52.254;4.490;2023-07-08T00:07:40;101769.66;;;22.85;100.00
31005;BME280;17676;52.254;4.490;2023-07-08T00:10:20;101769.34;;;22.82;100.00
31005;BME280;17676;52.254;4.490;2023-07-08T00:12:49;101751.31;;;22.64;100.00
31005;BME280;17676;52.254;4.490;2023-07-08T00:15:15;101742.78;;;22.71;100.00
31005;BME280;17676;52.254;4.490;2023-07-08T00:17:42;101748.31;;;22.71;100.00
31005;BME280;17676;52.254;4.490;2023-07-08T00:20:16;101755.97;;;22.59;100.00
31005;BME280;17676;52.254;4.490;2023-07-08T00:22:43;101740.44;;;22.53;100.00
31005;BME280;17676;52.254;4.490;2023-07-08T00:25:12;101749.44;;;22.43;100.00
31005;BME280;17676;52.254;4.490;2023-07-08T00:27:38;101735.75;;;22.48;100.00
31005;BME280;17676;52.254;4.490;2023-07-08T00:30:20;101721.28;;;22.41;100.00
31005;BME280;17676;52.254;4.490;2023-07-08T00:32:46;101735.63;;;22.38;100.00
31005;BME280;17676;52.254;4.490;2023-07-08T00:35:12;101698.84;;;22.28;100.00
31005;BME280;17676;52.254;4.490;2023-07-08T00:37:37;101709.03;;;22.27;100.00
31005;BME280;17676;52.254;4.490;2023-07-08T00:40:32;101714.13;;;22.09;100.00
31005;BME280;17676;52.254;4.490;2023-07-08T00:43:01;101707.72;;;22.03;100.00
31005;BME280;17676;52.254;4.490;2023-07-08T00:45:47;101715.97;;;21.98;100.00
31005;BME280;17676;52.254;4.490;2023-07-08T00:48:24;101700.00;;;22.00;100.00
31005;BME280;17676;52.254;4.490;2023-07-08T00:53:31;101698.94;;;21.75;100.00
31005;BME280;17676;52.254;4.490;2023-07-08T00:58:37;101689.31;;;21.77;100.00
31005;BME280;17676;52.254;4.490;2023-07-08T01:01:05;101689.72;;;21.64;100.00
31005;BME280;17676;52.254;4.490;2023-07-08T01:03:36;101693.44;;;21.53;100.00
31005;BME280;17676;52.254;4.490;2023-07-08T01:06:06;101683.66;;;21.41;100.00
31005;BME280;17676;52.254;4.490;2023-07-08T01:08:32;101676.53;;;21.45;100.00
31005;BME280;17676;52.254;4.490;2023-07-08T01:11:01;101674.53;;;21.35;100.00
31005;BME280;17676;52.254;4.490;2023-07-08T01:13:35;101665.47;;;21.40;100.00
31005;BME280;17676;52.254;4.490;2023-07-08T01:16:02;101656.47;;;21.23;100.00
31005;BME280;17676;52.254;4.490;2023-07-08T01:18:28;101660.63;;;21.25;100.00
31005;BME280;17676;52.254;4.490;2023-07-08T01:20:53;101646.22;;;21.18;100.00
31005;BME280;17676;52.254;4.490;2023-07-08T01:23:20;101640.50;;;21.25;100.00
31005;BME280;17676;52.254;4.490;2023-07-08T01:25:46;101635.41;;;21.12;100.00
31005;BME280;17676;52.254;4.490;2023-07-08T01:28:13;101638.41;;;21.10;100.00
31005;BME280;17676;52.254;4.490;2023-07-08T01:30:41;101637.84;;;21.08;100.00
31005;BME280;17676;52.254;4.490;2023-07-08T01:33:17;101641.16;;;21.10;100.00
31005;BME280;17676;52.254;4.490;2023-07-08T01:35:45;101622.94;;;21.04;100.00
31005;BME280;17676;52.254;4.490;2023-07-08T01:38:12;101623.16;;;20.98;100.00
31005;BME280;17676;52.254;4.490;2023-07-08T01:40:48;101625.41;;;21.01;100.00
31005;BME280;17676;52.254;4.490;2023-07-08T01:43:14;101604.69;;;20.77;100.00
31005;BME280;17676;52.254;4.490;2023-07-08T01:45:41;101611.16;;;20.87;100.00
31005;BME280;17676;52.254;4.490;2023-07-08T01:48:15;101612.34;;;20.91;100.00
31005;BME280;17676;52.254;4.490;2023-07-08T01:51:03;101616.81;;;20.97;100.00
31005;BME280;17676;52.254;4.490;2023-07-08T01:53:40;101612.13;;;20.98;100.00
31005;BME280;17676;52.254;4.490;2023-07-08T01:56:07;101605.22;;;20.95;100.00
31005;BME280;17676;52.254;4.490;2023-07-08T01:58:33;101608.25;;;20.94;100.00
31005;BME280;17676;52.254;4.490;2023-07-08T02:01:00;101603.97;;;20.86;100.00
31005;BME280;17676;52.254;4.490;2023-07-08T02:03:26;101605.84;;;20.81;100.00
31005;BME280;17676;52.254;4.490;2023-07-08T02:05:52;101607.00;;;20.85;100.00
31005;BME280;17676;52.254;4.490;2023-07-08T02:08:18;101601.06;;;20.71;100.00
31005;BME280;17676;52.254;4.490;2023-07-08T02:10:49;101597.72;;;20.69;100.00
31005;BME280;17676;52.254;4.490;2023-07-08T02:13:15;101586.50;;;20.76;100.00
31005;BME280;17676;52.254;4.490;2023-07-08T02:15:40;101585.16;;;20.78;100.00
31005;BME280;17676;52.254;4.490;2023-07-08T02:18:06;101575.13;;;20.67;100.00
31005;BME280;17676;52.254;4.490;2023-07-08T02:20:31;101596.06;;;20.68;100.00
31005;BME280;17676;52.254;4.490;2023-07-08T02:22:56;101585.69;;;20.75;100.00
31005;BME280;17676;52.254;4.490;2023-07-08T02:25:22;101584.09;;;20.79;100.00
31005;BME280;17676;52.254;4.490;2023-07-08T02:27:48;101575.69;;;20.69;100.00
31005;BME280;17676;52.254;4.490;2023-07-08T02:30:14;101571.84;;;20.70;100.00
31005;BME280;17676;52.254;4.490;2023-07-08T02:32:39;101578.38;;;20.64;100.00
31005;BME280;17676;52.254;4.490;2023-07-08T02:35:06;101579.09;;;20.55;100.00
31005;BME280;17676;52.254;4.490;2023-07-08T02:37:32;101569.44;;;20.52;100.00
31005;BME280;17676;52.254;4.490;2023-07-08T02:39:58;101552.28;;;20.45;100.00
31005;BME280;17676;52.254;4.490;2023-07-08T02:42:24;101550.31;;;20.41;100.00
31005;BME280;17676;52.254;4.490;2023-07-08T02:44:49;101546.72;;;20.40;100.00
31005;BME280;17676;52.254;4.490;2023-07-08T02:47:15;101554.72;;;20.20;100.00
31005;BME280;17676;52.254;4.490;2023-07-08T02:49:40;101557.53;;;20.25;100.00
31005;BME280;17676;52.254;4.490;2023-07-08T02:52:05;101527.41;;;20.14;100.00
31005;BME280;17676;52.254;4.490;2023-07-08T02:54:31;101549.72;;;20.17;100.00
31005;BME280;17676;52.254;4.490;2023-07-08T02:56:56;101550.31;;;20.19;100.00
31005;BME280;17676;52.254;4.490;2023-07-08T02:59:22;101535.66;;;19.97;100.00
31005;BME280;17676;52.254;4.490;2023-07-08T03:01:47;101556.69;;;20.08;100.00
31005;BME280;17676;52.254;4.490;2023-07-08T03:04:13;101551.06;;;20.15;100.00
31005;BME280;17676;52.254;4.490;2023-07-08T03:06:43;101547.41;;;20.09;100.00
31005;BME280;17676;52.254;4.490;2023-07-08T03:09:10;101540.72;;;20.05;100.00
31005;BME280;17676;52.254;4.490;2023-07-08T03:11:36;101551.19;;;20.08;100.00
31005;BME280;17676;52.254;4.490;2023-07-08T03:14:02;101550.25;;;20.14;100.00
31005;BME280;17676;52.254;4.490;2023-07-08T03:16:27;101556.69;;;20.08;100.00
31005;BME280;17676;52.254;4.490;2023-07-08T03:18:53;101556.03;;;20.01;100.00
31005;BME280;17676;52.254;4.490;2023-07-08T03:21:18;101554.69;;;20.04;100.00
31005;BME280;17676;52.254;4.490;2023-07-08T03:23:44;101552.25;;;19.86;100.00
31005;BME280;17676;52.254;4.490;2023-07-08T03:26:15;101563.56;;;19.89;100.00
31005;BME280;17676;52.254;4.490;2023-07-08T03:28:44;101556.41;;;19.88;100.00
31005;BME280;17676;52.254;4.490;2023-07-08T03:31:10;101559.56;;;19.80;100.00
31005;BME280;17676;52.254;4.490;2023-07-08T03:33:37;101562.00;;;19.77;100.00
31005;BME280;17676;52.254;4.490;2023-07-08T03:36:03;101567.31;;;19.83;100.00
31005;BME280;17676;52.254;4.490;2023-07-08T03:38:29;101562.41;;;19.85;100.00
31005;BME280;17676;52.254;4.490;2023-07-08T03:40:54;101561.75;;;19.78;100.00
31005;BME280;17676;52.254;4.490;2023-07-08T03:43:20;101562.81;;;19.77;100.00
31005;BME280;17676;52.254;4.490;2023-07-08T03:45:46;101555.66;;;19.76;100.00
31005;BME280;17676;52.254;4.490;2023-07-08T03:48:12;101571.72;;;19.84;100.00
31005;BME280;17676;52.254;4.490;2023-07-08T03:50:38;101565.75;;;19.87;100.00
31005;BME280;17676;52.254;4.490;2023-07-08T03:53:04;101568.25;;;19.89;100.00
31005;BME280;17676;52.254;4.490;2023-07-08T03:55:29;101570.50;;;19.75;100.00
31005;BME280;17676;52.254;4.490;2023-07-08T03:57:55;101571.59;;;19.74;100.00
31005;BME280;17676;52.254;4.490;2023-07-08T04:00:20;101572.75;;;19.78;100.00
31005;BME280;17676;52.254;4.490;2023-07-08T04:02:46;101565.91;;;19.81;100.00
31005;BME280;17676;52.254;4.490;2023-07-08T04:05:15;101574.81;;;19.71;100.00
31005;BME280;17676;52.254;4.490;2023-07-08T04:07:41;101581.41;;;19.70;100.00
31005;BME280;17676;52.254;4.490;2023-07-08T04:10:08;101585.81;;;19.71;100.00
31005;BME280;17676;52.254;4.490;2023-07-08T04:12:33;101584.41;;;19.69;100.00
31005;BME280;17676;52.254;4.490;2023-07-08T04:14:59;101567.25;;;19.62;100.00
31005;BME280;17676;52.254;4.490;2023-07-08T04:17:24;101572.56;;;19.68;100.00
31005;BME280;17676;52.254;4.490;2023-07-08T04:19:50;101572.56;;;19.68;100.00
31005;BME280;17676;52.254;4.490;2023-07-08T04:22:16;101574.22;;;19.69;100.00
31005;BME280;17676;52.254;4.490;2023-07-08T04:24:42;101576.00;;;19.75;100.00
31005;BME280;17676;52.254;4.490;2023-07-08T04:27:13;101574.91;;;19.76;100.00
31005;BME280;17676;52.254;4.490;2023-07-08T04:29:40;101574.22;;;19.86;100.00
31005;BME280;17676;52.254;4.490;2023-07-08T04:32:06;101572.41;;;19.91;100.00
31005;BME280;17676;52.254;4.490;2023-07-08T04:34:31;101581.72;;;19.90;100.00
31005;BME280;17676;52.254;4.490;2023-07-08T04:36:57;101574.72;;;19.99;100.00
31005;BME280;17676;52.254;4.490;2023-07-08T04:39:22;101585.47;;;20.01;100.00
31005;BME280;17676;52.254;4.490;2023-07-08T04:41:47;101586.63;;;20.05;100.00
31005;BME280;17676;52.254;4.490;2023-07-08T04:44:13;101582.63;;;20.12;100.00
31005;BME280;17676;52.254;4.490;2023-07-08T04:46:42;101589.00;;;20.34;100.00
31005;BME280;17676;52.254;4.490;2023-07-08T04:49:09;101573.34;;;20.56;100.00
31005;BME280;17676;52.254;4.490;2023-07-08T04:51:35;101580.28;;;20.85;100.00
31005;BME280;17676;52.254;4.490;2023-07-08T04:54:01;101570.59;;;20.99;100.00
31005;BME280;17676;52.254;4.490;2023-07-08T04:59:06;101570.78;;;21.19;100.00
31005;BME280;17676;52.254;4.490;2023-07-08T05:01:32;101565.16;;;21.09;100.00
31005;BME280;17676;52.254;4.490;2023-07-08T05:03:59;101573.44;;;21.09;100.00
31005;BME280;17676;52.254;4.490;2023-07-08T05:06:24;101575.03;;;21.05;100.00
31005;BME280;17676;52.254;4.490;2023-07-08T05:08:50;101573.91;;;21.01;100.00
31005;BME280;17676;52.254;4.490;2023-07-08T05:11:15;101578.25;;;20.97;100.00
31005;BME280;17676;52.254;4.490;2023-07-08T05:13:41;101569.50;;;21.00;100.00
31005;BME280;17676;52.254;4.490;2023-07-08T05:16:06;101561.88;;;21.07;100.00
31005;BME280;17676;52.254;4.490;2023-07-08T05:18:31;101563.06;;;21.16;100.00
31005;BME280;17676;52.254;4.490;2023-07-08T05:20:57;101572.75;;;21.24;100.00
31005;BME280;17676;52.254;4.490;2023-07-08T05:23:22;101568.63;;;21.26;100.00
31005;BME280;17676;52.254;4.490;2023-07-08T05:25:49;101572.31;;;21.37;100.00
31005;BME280;17676;52.254;4.490;2023-07-08T05:28:15;101572.72;;;21.50;100.00
31005;BME280;17676;52.254;4.490;2023-07-08T05:30:41;101576.09;;;21.57;100.00
31005;BME280;17676;52.254;4.490;2023-07-08T05:33:08;101583.81;;;21.55;100.00
31005;BME280;17676;52.254;4.490;2023-07-08T05:35:33;101580.13;;;21.71;100.00
31005;BME280;17676;52.254;4.490;2023-07-08T05:37:58;101582.53;;;21.68;100.00
31005;BME280;17676;52.254;4.490;2023-07-08T05:40:24;101575.28;;;21.88;100.00
31005;BME280;17676;52.254;4.490;2023-07-08T05:42:49;101571.47;;;21.99;100.00
31005;BME280;17676;52.254;4.490;2023-07-08T05:45:15;101572.31;;;22.00;100.00
31005;BME280;17676;52.254;4.490;2023-07-08T05:47:40;101567.69;;;22.10;100.00
31005;BME280;17676;52.254;4.490;2023-07-08T05:50:06;101568.19;;;22.02;100.00
31005;BME280;17676;52.254;4.490;2023-07-08T05:52:32;101567.16;;;22.13;100.00
31005;BME280;17676;52.254;4.490;2023-07-08T05:54:57;101573.13;;;22.42;100.00
31005;BME280;17676;52.254;4.490;2023-07-08T05:57:22;101573.13;;;22.42;100.00
31005;BME280;17676;52.254;4.490;2023-07-08T05:59:51;101572.41;;;22.56;100.00
31005;BME280;17676;52.254;4.490;2023-07-08T06:02:18;101569.66;;;22.61;100.00
31005;BME280;17676;52.254;4.490;2023-07-08T06:04:47;101576.38;;;22.85;100.00
31005;BME280;17676;52.254;4.490;2023-07-08T06:07:12;101570.00;;;22.85;100.00
31005;BME280;17676;52.254;4.490;2023-07-08T06:09:37;101581.94;;;23.05;100.00
31005;BME280;17676;52.254;4.490;2023-07-08T06:12:03;101588.09;;;23.22;100.00
31005;BME280;17676;52.254;4.490;2023-07-08T06:14:28;101577.03;;;23.22;100.00
31005;BME280;17676;52.254;4.490;2023-07-08T06:16:54;101583.66;;;23.36;100.00
31005;BME280;17676;52.254;4.490;2023-07-08T06:19:20;101583.41;;;23.33;100.00
31005;BME280;17676;52.254;4.490;2023-07-08T06:21:46;101572.91;;;23.40;100.00
31005;BME280;17676;52.254;4.490;2023-07-08T06:24:11;101596.13;;;23.44;100.00
31005;BME280;17676;52.254;4.490;2023-07-08T06:26:37;101589.19;;;23.36;100.00
31005;BME280;17676;52.254;4.490;2023-07-08T06:29:03;101598.63;;;23.56;100.00
31005;BME280;17676;52.254;4.490;2023-07-08T06:31:29;101591.19;;;23.91;100.00
31005;BME280;17676;52.254;4.490;2023-07-08T06:33:54;101600.84;;;24.19;100.00
31005;BME280;17676;52.254;4.490;2023-07-08T06:36:20;101595.19;;;24.54;100.00
31005;BME280;17676;52.254;4.490;2023-07-08T06:38:45;101595.75;;;24.61;100.00
31005;BME280;17676;52.254;4.490;2023-07-08T06:41:10;101600.47;;;25.14;100.00
31005;BME280;17676;52.254;4.490;2023-07-08T06:43:36;101602.75;;;25.02;100.00
31005;BME280;17676;52.254;4.490;2023-07-08T06:46:01;101602.78;;;25.79;100.00
31005;BME280;17676;52.254;4.490;2023-07-08T06:48:27;101607.88;;;26.81;100.00
31005;BME280;17676;52.254;4.490;2023-07-08T06:50:52;101613.31;;;27.33;100.00
31005;BME280;17676;52.254;4.490;2023-07-08T06:53:18;101615.09;;;27.24;100.00
31005;BME280;17676;52.254;4.490;2023-07-08T06:55:44;101615.22;;;27.14;100.00
31005;BME280;17676;52.254;4.490;2023-07-08T06:58:10;101599.09;;;27.34;100.00
31005;BME280;17676;52.254;4.490;2023-07-08T07:00:36;101611.13;;;26.64;100.00
31005;BME280;17676;52.254;4.490;2023-07-08T07:03:02;101598.66;;;26.62;100.00
31005;BME280;17676;52.254;4.490;2023-07-08T07:05:27;101606.41;;;27.07;100.00
31005;BME280;17676;52.254;4.490;2023-07-08T07:07:53;101618.16;;;28.10;100.00
31005;BME280;17676;52.254;4.490;2023-07-08T07:10:19;101643.63;;;29.30;100.00
31005;BME280;17676;52.254;4.490;2023-07-08T07:12:45;101615.16;;;28.79;100.00
31005;BME280;17676;52.254;4.490;2023-07-08T07:15:10;101617.63;;;30.01;100.00
31005;BME280;17676;52.254;4.490;2023-07-08T07:17:36;101629.16;;;30.60;100.00
31005;BME280;17676;52.254;4.490;2023-07-08T07:20:02;101635.34;;;29.96;100.00
31005;BME280;17676;52.254;4.490;2023-07-08T07:22:28;101616.22;;;30.73;100.00
31005;BME280;17676;52.254;4.490;2023-07-08T07:24:54;101644.47;;;32.47;99.32
31005;BME280;17676;52.254;4.490;2023-07-08T07:27:20;101647.25;;;32.55;96.06
31005;BME280;17676;52.254;4.490;2023-07-08T07:29:48;101657.25;;;32.65;94.68
31005;BME280;17676;52.254;4.490;2023-07-08T07:32:15;101647.72;;;32.57;96.00
31005;BME280;17676;52.254;4.490;2023-07-08T07:34:41;101661.66;;;33.12;93.21
31005;BME280;17676;52.254;4.490;2023-07-08T07:37:11;101659.19;;;34.01;90.24
31005;BME280;17676;52.254;4.490;2023-07-08T07:39:37;101665.38;;;33.94;86.95
31005;BME280;17676;52.254;4.490;2023-07-08T07:42:03;101672.59;;;33.05;88.26
31005;BME280;17676;52.254;4.490;2023-07-08T07:44:28;101639.69;;;32.85;95.74
31005;BME280;17676;52.254;4.490;2023-07-08T07:46:54;101628.56;;;33.26;92.76
31005;BME280;17676;52.254;4.490;2023-07-08T07:49:20;101647.41;;;32.96;92.58
31005;BME280;17676;52.254;4.490;2023-07-08T07:51:48;101631.19;;;32.10;96.76
31005;BME280;17676;52.254;4.490;2023-07-08T07:54:14;101628.00;;;32.28;97.59
31005;BME280;17676;52.254;4.490;2023-07-08T07:56:40;101594.16;;;33.08;98.75
31005;BME280;17676;52.254;4.490;2023-07-08T07:59:05;101632.69;;;33.49;93.22
31005;BME280;17676;52.254;4.490;2023-07-08T08:01:31;101643.16;;;34.34;86.21
31005;BME280;17676;52.254;4.490;2023-07-08T08:03:56;101639.31;;;34.50;84.47
31005;BME280;17676;52.254;4.490;2023-07-08T08:06:22;101642.00;;;33.82;87.72
31005;BME280;17676;52.254;4.490;2023-07-08T08:08:47;101644.94;;;32.95;89.66
31005;BME280;17676;52.254;4.490;2023-07-08T08:11:14;101613.66;;;33.54;94.38
31005;BME280;17676;52.254;4.490;2023-07-08T08:13:40;101645.84;;;33.77;87.58
31005;BME280;17676;52.254;4.490;2023-07-08T08:16:05;101645.31;;;34.73;85.40
31005;BME280;17676;52.254;4.490;2023-07-08T08:18:31;101649.53;;;34.79;86.74
31005;BME280;17676;52.254;4.490;2023-07-08T08:20:56;101660.69;;;34.75;85.37
31005;BME280;17676;52.254;4.490;2023-07-08T08:23:24;101680.44;;;35.36;79.23
31005;BME280;17676;52.254;4.490;2023-07-08T08:25:52;101692.50;;;34.88;79.28
31005;BME280;17676;52.254;4.490;2023-07-08T08:28:18;101654.81;;;34.24;91.78
31005;BME280;17676;52.254;4.490;2023-07-08T08:30:48;101666.41;;;34.79;86.98
31005;BME280;17676;52.254;4.490;2023-07-08T08:33:14;101674.44;;;35.25;82.36
31005;BME280;17676;52.254;4.490;2023-07-08T08:35:39;101677.34;;;35.41;81.06
31005;BME280;17676;52.254;4.490;2023-07-08T08:38:04;101666.63;;;35.58;82.92
31005;BME280;17676;52.254;4.490;2023-07-08T08:40:31;101674.19;;;34.94;82.52
31005;BME280;17676;52.254;4.490;2023-07-08T08:43:06;101682.19;;;34.92;84.66
31005;BME280;17676;52.254;4.490;2023-07-08T08:45:41;101693.16;;;36.36;77.42
31005;BME280;17676;52.254;4.490;2023-07-08T08:48:11;101688.44;;;35.73;78.07
31005;BME280;17676;52.254;4.490;2023-07-08T08:50:46;101689.94;;;36.81;76.08
31005;BME280;17676;52.254;4.490;2023-07-08T08:53:16;101695.03;;;37.06;73.33
31005;BME280;17676;52.254;4.490;2023-07-08T08:55:42;101701.22;;;37.27;73.18
31005;BME280;17676;52.254;4.490;2023-07-08T09:00:59;101704.31;;;37.72;67.38
31005;BME280;17676;52.254;4.490;2023-07-08T09:03:36;101699.50;;;37.57;69.23
31005;BME280;17676;52.254;4.490;2023-07-08T09:06:19;101700.50;;;37.30;70.52
31005;BME280;17676;52.254;4.490;2023-07-08T09:08:45;101699.13;;;37.74;68.29
31005;BME280;17676;52.254;4.490;2023-07-08T09:13:55;101704.81;;;37.59;69.46
31005;BME280;17676;52.254;4.490;2023-07-08T09:19:21;101691.59;;;36.97;73.79
31005;BME280;17676;52.254;4.490;2023-07-08T09:22:14;101693.84;;;37.57;67.46
31005;BME280;17676;52.254;4.490;2023-07-08T09:24:50;101709.69;;;37.77;65.93
31005;BME280;17676;52.254;4.490;2023-07-08T09:27:17;101682.22;;;37.43;69.09
31005;BME280;17676;52.254;4.490;2023-07-08T09:29:43;101681.50;;;37.46;70.34
31005;BME280;17676;52.254;4.490;2023-07-08T09:32:18;101689.84;;;37.58;67.81
31005;BME280;17676;52.254;4.490;2023-07-08T09:34:49;101692.34;;;37.44;69.37
31005;BME280;17676;52.254;4.490;2023-07-08T09:37:32;101693.59;;;36.81;75.51
31005;BME280;17676;52.254;4.490;2023-07-08T09:39:59;101692.31;;;36.08;74.60
31005;BME280;17676;52.254;4.490;2023-07-08T09:42:30;101682.28;;;35.44;83.39
31005;BME280;17676;52.254;4.490;2023-07-08T09:44:58;101698.91;;;35.61;77.90
31005;BME280;17676;52.254;4.490;2023-07-08T09:47:32;101679.50;;;35.83;81.10
31005;BME280;17676;52.254;4.490;2023-07-08T09:49:59;101686.97;;;36.46;77.91
31005;BME280;17676;52.254;4.490;2023-07-08T09:52:25;101677.06;;;36.52;78.87
31005;BME280;17676;52.254;4.490;2023-07-08T09:54:51;101680.69;;;36.37;77.95
31005;BME280;17676;52.254;4.490;2023-07-08T09:57:29;101684.06;;;36.15;78.00
31005;BME280;17676;52.254;4.490;2023-07-08T10:00:16;101686.66;;;35.05;82.92
31005;BME280;17676;52.254;4.490;2023-07-08T10:07:45;101664.03;;;35.65;84.25
31005;BME280;17676;52.254;4.490;2023-07-08T10:10:15;101680.16;;;35.92;77.46
31005;BME280;17676;52.254;4.490;2023-07-08T10:12:41;101662.47;;;35.40;85.04
31005;BME280;17676;52.254;4.490;2023-07-08T10:15:31;101682.16;;;35.52;79.78
31005;BME280;17676;52.254;4.490;2023-07-08T10:17:59;101659.78;;;35.32;84.48
31005;BME280;17676;52.254;4.490;2023-07-08T10:20:33;101647.56;;;35.15;89.83
31005;BME280;17676;52.254;4.490;2023-07-08T10:23:04;101678.25;;;35.96;80.78
31005;BME280;17676;52.254;4.490;2023-07-08T10:26:02;101651.31;;;35.07;89.10
31005;BME280;17676;52.254;4.490;2023-07-08T10:28:53;101665.50;;;35.23;86.08
31005;BME280;17676;52.254;4.490;2023-07-08T10:31:58;101667.16;;;34.76;87.66
31005;BME280;17676;52.254;4.490;2023-07-08T10:39:47;101656.06;;;35.55;84.98
31005;BME280;17676;52.254;4.490;2023-07-08T10:45:10;101656.22;;;35.47;88.29
31005;BME280;17676;52.254;4.490;2023-07-08T10:51:16;101663.28;;;35.16;86.29
31005;BME280;17676;52.254;4.490;2023-07-08T10:56:56;101669.84;;;35.08;84.49
31005;BME280;17676;52.254;4.490;2023-07-08T10:59:41;101658.72;;;34.88;89.84
31005;BME280;17676;52.254;4.490;2023-07-08T11:07:59;101646.72;;;35.15;89.06
31005;BME280;17676;52.254;4.490;2023-07-08T11:10:40;101660.59;;;35.08;88.34
31005;BME280;17676;52.254;4.490;2023-07-08T11:13:13;101650.50;;;35.31;88.86
31005;BME280;17676;52.254;4.490;2023-07-08T11:15:48;101648.38;;;35.40;89.99
31005;BME280;17676;52.254;4.490;2023-07-08T11:18:54;101639.00;;;35.36;89.66
31005;BME280;17676;52.254;4.490;2023-07-08T11:21:26;101651.78;;;33.96;93.00
31005;BME280;17676;52.254;4.490;2023-07-08T11:24:22;101641.78;;;34.40;95.18
31005;BME280;17676;52.254;4.490;2023-07-08T11:26:50;101629.50;;;35.04;94.36
31005;BME280;17676;52.254;4.490;2023-07-08T11:29:21;101633.78;;;35.50;91.77
31005;BME280;17676;52.254;4.490;2023-07-08T11:31:49;101628.81;;;35.59;91.28
31005;BME280;17676;52.254;4.490;2023-07-08T11:34:17;101638.91;;;35.72;89.76
31005;BME280;17676;52.254;4.490;2023-07-08T11:36:45;101643.59;;;35.68;88.78
31005;BME280;17676;52.254;4.490;2023-07-08T11:39:33;101619.50;;;35.31;92.26
31005;BME280;17676;52.254;4.490;2023-07-08T11:42:11;101655.16;;;35.27;86.31
31005;BME280;17676;52.254;4.490;2023-07-08T11:44:43;101679.97;;;35.09;82.38
31005;BME280;17676;52.254;4.490;2023-07-08T11:47:17;101659.41;;;35.09;83.22
31005;BME280;17676;52.254;4.490;2023-07-08T11:49:43;101647.47;;;35.12;87.35
31005;BME280;17676;52.254;4.490;2023-07-08T11:52:18;101612.88;;;33.86;98.56
31005;BME280;17676;52.254;4.490;2023-07-08T11:54:48;101622.84;;;34.28;96.45
31005;BME280;17676;52.254;4.490;2023-07-08T11:57:38;101653.06;;;34.64;88.59
31005;BME280;17676;52.254;4.490;2023-07-08T12:00:16;101638.03;;;34.48;92.66
31005;BME280;17676;52.254;4.490;2023-07-08T12:02:57;101645.06;;;34.54;89.60
31005;BME280;17676;52.254;4.490;2023-07-08T12:05:49;101652.41;;;34.02;87.60
31005;BME280;17676;52.254;4.490;2023-07-08T12:08:21;101635.38;;;34.19;89.90
31005;BME280;17676;52.254;4.490;2023-07-08T12:10:50;101650.91;;;34.16;88.27
31005;BME280;17676;52.254;4.490;2023-07-08T12:13:23;101632.00;;;33.52;95.63
31005;BME280;17676;52.254;4.490;2023-07-08T12:15:52;101656.69;;;33.87;85.73
31005;BME280;17676;52.254;4.490;2023-07-08T12:18:28;101680.13;;;33.71;82.12
31005;BME280;17676;52.254;4.490;2023-07-08T12:20:58;101661.34;;;33.63;83.65
31005;BME280;17676;52.254;4.490;2023-07-08T12:23:25;101674.28;;;33.35;82.01
31005;BME280;17676;52.254;4.490;2023-07-08T12:25:52;101642.78;;;32.92;91.48
31005;BME280;17676;52.254;4.490;2023-07-08T12:28:19;101624.13;;;32.96;94.79
31005;BME280;17676;52.254;4.490;2023-07-08T12:30:46;101644.53;;;33.54;88.12
31005;BME280;17676;52.254;4.490;2023-07-08T12:33:34;101643.81;;;34.19;85.46
31005;BME280;17676;52.254;4.490;2023-07-08T12:36:01;101644.25;;;34.21;85.83
31005;BME280;17676;52.254;4.490;2023-07-08T12:38:44;101653.66;;;33.72;85.88
31005;BME280;17676;52.254;4.490;2023-07-08T12:41:19;101661.44;;;33.46;84.92
31005;BME280;17676;52.254;4.490;2023-07-08T12:43:46;101665.72;;;33.72;82.79
31005;BME280;17676;52.254;4.490;2023-07-08T12:46:14;101623.09;;;33.91;90.41
31005;BME280;17676;52.254;4.490;2023-07-08T12:48:40;101657.63;;;33.91;80.92
31005;BME280;17676;52.254;4.490;2023-07-08T12:51:12;101653.00;;;34.07;81.88
31005;BME280;17676;52.254;4.490;2023-07-08T12:53:37;101640.03;;;34.15;84.18
31005;BME280;17676;52.254;4.490;2023-07-08T12:56:03;101669.22;;;34.43;76.83
31005;BME280;17676;52.254;4.490;2023-07-08T12:58:35;101659.50;;;34.20;81.70
31005;BME280;17676;52.254;4.490;2023-07-08T13:01:03;101657.63;;;33.71;83.90
31005;BME280;17676;52.254;4.490;2023-07-08T13:03:31;101624.47;;;33.85;86.76
31005;BME280;17676;52.254;4.490;2023-07-08T13:06:00;101659.16;;;32.90;82.25
31005;BME280;17676;52.254;4.490;2023-07-08T13:08:29;101661.53;;;32.71;84.02
31005;BME280;17676;52.254;4.490;2023-07-08T13:10:58;101651.81;;;33.06;84.17
31005;BME280;17676;52.254;4.490;2023-07-08T13:13:37;101645.56;;;33.50;87.00
31005;BME280;17676;52.254;4.490;2023-07-08T13:16:03;101661.34;;;33.63;79.46
31005;BME280;17676;52.254;4.490;2023-07-08T13:18:39;101683.41;;;33.93;76.45
31005;BME280;17676;52.254;4.490;2023-07-08T13:21:06;101663.88;;;33.76;79.87
31005;BME280;17676;52.254;4.490;2023-07-08T13:23:32;101653.13;;;33.99;82.76
31005;BME280;17676;52.254;4.490;2023-07-08T13:25:59;101652.34;;;34.22;78.04
31005;BME280;17676;52.254;4.490;2023-07-08T13:28:29;101647.13;;;34.33;84.92
31005;BME280;17676;52.254;4.490;2023-07-08T13:31:13;101661.41;;;34.28;77.50
31005;BME280;17676;52.254;4.490;2023-07-08T13:33:45;101673.06;;;34.18;73.44
31005;BME280;17676;52.254;4.490;2023-07-08T13:36:13;101670.13;;;34.35;74.76